Time;durP1;ratioP1;P1;durP2;ratioP2;P2;SDS_P1;SDS_P2;PMS_P1;PMS_P2;Temp;Humidity;BMP_temperature;BMP_pressure;BME280_temperature;BME280_humidity;BME280_pressure;Samples;Min_cycle;Max_cycle;Signal;HPM_P1;HPM_P2
2023/12/02 00:02:10;;;;;;;66.63;25.10;;;-1.40;99.90;;;;;;4467068;27;659697;-69
2023/12/02 00:04:57;;;;;;;49.30;20.00;;;-1.40;99.90;;;;;;4441864;27;659944;-70
2023/12/02 00:07:44;;;;;;;59.27;24.27;;;-1.40;99.90;;;;;;4454872;28;660305;-69
2023/12/02 00:10:32;;;;;;;61.90;23.63;;;-1.40;99.90;;;;;;4443685;27;660432;-70
2023/12/02 00:13:20;;;;;;;59.13;22.80;;;-1.40;99.90;;;;;;4436088;28;659823;-69
2023/12/02 00:16:09;;;;;;;57.85;23.48;;;-1.40;99.90;;;;;;4425807;28;659396;-70
2023/12/02 00:18:56;;;;;;;55.60;20.00;;;-1.40;99.90;;;;;;4446516;28;660393;-70
2023/12/02 00:21:43;;;;;;;65.77;24.87;;;-1.40;99.90;;;;;;4433600;27;659496;-69
2023/12/02 00:24:30;;;;;;;67.00;25.47;;;-1.50;99.90;;;;;;4449569;28;660279;-70
2023/12/02 00:27:18;;;;;;;60.88;24.40;;;-1.40;99.90;;;;;;4433904;27;659869;-69
2023/12/02 00:30:08;;;;;;;58.77;22.10;;;-1.50;99.90;;;;;;4457873;27;659838;-69
2023/12/02 00:32:56;;;;;;;53.97;21.57;;;-1.40;99.90;;;;;;4423440;28;660334;-70
2023/12/02 00:35:43;;;;;;;52.53;22.17;;;-1.40;99.90;;;;;;4429268;27;659934;-69
2023/12/02 00:38:30;;;;;;;64.67;25.13;;;-1.40;99.90;;;;;;4457271;27;660002;-70
2023/12/02 00:41:17;;;;;;;59.67;22.48;;;-1.50;99.90;;;;;;4430924;27;659565;-69
2023/12/02 00:44:05;;;;;;;62.03;22.07;;;-1.50;99.90;;;;;;4460586;27;660660;-69
2023/12/02 00:46:54;;;;;;;53.73;20.57;;;-1.50;99.90;;;;;;4447275;28;659576;-69
2023/12/02 00:49:41;;;;;;;52.10;22.70;;;-1.50;99.90;;;;;;4457264;27;659540;-69
2023/12/02 00:52:28;;;;;;;60.93;23.27;;;-1.50;99.90;;;;;;4427318;28;659970;-69
2023/12/02 00:55:16;;;;;;;60.57;22.83;;;-1.60;99.90;;;;;;4449230;27;660124;-70
2023/12/02 00:58:03;;;;;;;45.90;19.60;;;-1.60;99.90;;;;;;4427847;28;659324;-69
2023/12/02 01:00:50;;;;;;;47.37;19.87;;;-1.60;99.90;;;;;;4451491;27;660079;-69
2023/12/02 01:03:39;;;;;;;47.73;20.30;;;-1.60;99.90;;;;;;4434737;27;660275;-69
2023/12/02 01:06:26;;;;;;;44.53;19.03;;;-1.60;99.90;;;;;;4455790;28;660085;-69
2023/12/02 01:09:13;;;;;;;53.73;22.07;;;-1.60;99.90;;;;;;4431801;27;659868;-69
2023/12/02 01:12:00;;;;;;;45.53;19.77;;;-1.60;99.90;;;;;;4449298;28;660448;-70
2023/12/02 01:14:47;;;;;;;47.70;19.98;;;-1.60;99.90;;;;;;4440099;27;660259;-70
2023/12/02 01:17:35;;;;;;;44.63;19.67;;;-1.60;99.90;;;;;;4463097;27;660113;-69
2023/12/02 01:20:24;;;;;;;44.10;19.17;;;-1.60;99.90;;;;;;4461942;27;660131;-70
2023/12/02 01:23:11;;;;;;;48.43;20.10;;;-1.60;99.90;;;;;;4457392;27;659662;-70
2023/12/02 01:25:58;;;;;;;34.50;14.57;;;-1.50;99.90;;;;;;4429669;28;660261;-70
2023/12/02 01:28:46;;;;;;;41.28;18.67;;;-1.50;99.90;;;;;;4444709;28;661264;-69
2023/12/02 01:31:33;;;;;;;48.00;19.00;;;-1.50;99.90;;;;;;4426988;28;659532;-69
2023/12/02 01:34:20;;;;;;;39.20;15.80;;;-1.50;99.90;;;;;;4456318;28;659555;-69
2023/12/02 01:37:09;;;;;;;51.43;19.07;;;-1.50;99.90;;;;;;4446834;27;660081;-70
2023/12/02 01:39:56;;;;;;;42.40;16.50;;;-1.60;99.90;;;;;;4437501;28;660604;-69
2023/12/02 01:42:43;;;;;;;39.60;18.30;;;-1.60;99.90;;;;;;4429736;28;659578;-70
2023/12/02 01:45:30;;;;;;;42.17;15.57;;;-1.60;99.90;;;;;;4449916;28;659305;-69
2023/12/02 01:48:18;;;;;;;44.55;19.60;;;-1.60;99.90;;;;;;4436475;28;660138;-69
2023/12/02 01:51:06;;;;;;;43.38;16.70;;;-1.60;99.90;;;;;;4451762;28;660596;-70
2023/12/02 01:53:54;;;;;;;37.23;14.50;;;-1.60;99.90;;;;;;4436177;28;659672;-69
2023/12/02 01:56:41;;;;;;;58.13;22.00;;;-1.60;99.90;;;;;;4457762;28;659714;-69
2023/12/02 01:59:28;;;;;;;38.63;15.43;;;-1.60;99.90;;;;;;4426978;28;660349;-69
2023/12/02 02:02:16;;;;;;;42.80;17.80;;;-1.60;99.90;;;;;;4455765;28;660294;-69
2023/12/02 02:05:03;;;;;;;53.47;18.27;;;-1.60;99.90;;;;;;4441087;28;659845;-69
2023/12/02 02:07:50;;;;;;;48.13;18.37;;;-1.60;99.90;;;;;;4454890;28;660790;-69
2023/12/02 02:10:39;;;;;;;46.70;18.80;;;-1.70;99.90;;;;;;4442608;28;660099;-70
2023/12/02 02:13:26;;;;;;;42.07;14.50;;;-1.70;99.90;;;;;;4458822;28;659196;-70
2023/12/02 02:16:13;;;;;;;49.20;20.33;;;-1.70;99.90;;;;;;4435280;28;659564;-71
2023/12/02 02:19:00;;;;;;;41.00;17.03;;;-1.70;99.90;;;;;;4449624;28;660906;-70
2023/12/02 02:21:53;;;;;;;39.23;15.53;;;-1.70;99.90;;;;;;4423201;28;659293;-69
2023/12/02 02:24:41;;;;;;;33.17;13.17;;;-1.70;99.90;;;;;;4419608;28;660402;-69
2023/12/02 02:27:28;;;;;;;44.27;19.20;;;-1.70;99.90;;;;;;4422218;28;659830;-70
2023/12/02 02:30:15;;;;;;;49.87;18.77;;;-1.80;99.90;;;;;;4454568;28;660625;-69
2023/12/02 02:33:02;;;;;;;54.17;16.50;;;-1.70;99.90;;;;;;4436096;28;659737;-70
2023/12/02 02:35:49;;;;;;;52.63;18.93;;;-1.70;99.90;;;;;;4458940;28;660094;-70
2023/12/02 02:38:38;;;;;;;36.57;13.97;;;-1.80;99.90;;;;;;4448483;28;659497;-69
2023/12/02 02:41:25;;;;;;;41.63;16.83;;;-1.80;99.90;;;;;;4433003;28;659700;-69
2023/12/02 02:44:12;;;;;;;45.03;18.57;;;-1.80;99.90;;;;;;4424529;28;659952;-69
2023/12/02 02:47:00;;;;;;;45.37;18.00;;;-1.80;99.90;;;;;;4460409;28;660629;-70
2023/12/02 02:49:47;;;;;;;42.53;17.17;;;-1.80;99.90;;;;;;4444927;27;659684;-72
2023/12/02 02:52:35;;;;;;;43.97;17.97;;;-1.80;99.90;;;;;;4460153;28;659888;-70
2023/12/02 02:55:23;;;;;;;48.70;18.47;;;-1.80;99.90;;;;;;4450431;27;660341;-70
2023/12/02 02:58:10;;;;;;;43.70;17.10;;;-1.90;99.90;;;;;;4431004;27;660193;-69
2023/12/02 03:00:57;;;;;;;37.30;16.10;;;-1.80;99.90;;;;;;4438524;27;659760;-70
2023/12/02 03:03:45;;;;;;;44.80;16.60;;;-1.90;99.90;;;;;;4460309;27;659873;-70
2023/12/02 03:06:32;;;;;;;35.57;15.03;;;-1.80;99.90;;;;;;4450571;27;659785;-69
2023/12/02 03:09:19;;;;;;;39.07;15.07;;;-1.90;99.90;;;;;;4434486;27;660447;-70
2023/12/02 03:12:08;;;;;;;39.87;16.37;;;-1.80;99.90;;;;;;4444789;28;659841;-69
2023/12/02 03:14:55;;;;;;;39.27;15.33;;;-1.80;99.90;;;;;;4429136;27;660706;-69
2023/12/02 03:17:42;;;;;;;38.77;14.53;;;-1.80;99.90;;;;;;4428680;28;659899;-70
2023/12/02 03:20:30;;;;;;;36.60;15.80;;;-1.80;99.90;;;;;;4454128;27;660308;-69
2023/12/02 03:23:17;;;;;;;33.07;14.37;;;-1.80;99.90;;;;;;4450055;27;660215;-69
2023/12/02 03:26:05;;;;;;;39.47;16.00;;;-1.80;99.90;;;;;;4454945;27;660077;-69
2023/12/02 03:28:54;;;;;;;26.70;12.02;;;-1.80;99.90;;;;;;4438913;27;659796;-70
2023/12/02 03:31:41;;;;;;;39.30;16.63;;;-1.80;99.90;;;;;;4454003;27;659144;-70
2023/12/02 03:34:28;;;;;;;24.10;10.93;;;-1.80;99.90;;;;;;4424734;27;660661;-70
2023/12/02 03:37:15;;;;;;;30.90;13.10;;;-1.80;99.90;;;;;;4459222;27;660106;-70
2023/12/02 03:40:03;;;;;;;29.10;13.50;;;-1.80;99.90;;;;;;4431444;27;659432;-69
2023/12/02 03:42:51;;;;;;;35.90;15.65;;;-1.80;99.90;;;;;;4458190;27;659628;-69
2023/12/02 03:45:40;;;;;;;38.13;14.30;;;-1.80;99.90;;;;;;4415766;28;660183;-70
2023/12/02 03:48:27;;;;;;;29.20;12.07;;;-1.70;99.90;;;;;;4430778;28;659740;-70
2023/12/02 03:51:15;;;;;;;37.43;16.33;;;-1.80;99.90;;;;;;4459206;27;659713;-69
2023/12/02 03:54:02;;;;;;;28.33;12.00;;;-1.80;99.90;;;;;;4451901;27;659326;-70
2023/12/02 03:56:50;;;;;;;22.97;9.97;;;-1.90;99.90;;;;;;4448679;28;660214;-70
2023/12/02 03:59:40;;;;;;;27.17;12.13;;;-1.80;99.90;;;;;;4446363;27;658746;-70
2023/12/02 04:02:29;;;;;;;28.70;12.57;;;-1.80;99.90;;;;;;4459038;27;660415;-70
2023/12/02 04:05:16;;;;;;;27.00;12.23;;;-1.90;99.90;;;;;;4457589;27;660658;-70
2023/12/02 04:08:04;;;;;;;23.13;10.07;;;-1.90;99.90;;;;;;4435594;27;659719;-70
2023/12/02 04:10:52;;;;;;;27.57;11.63;;;-1.90;99.90;;;;;;4446505;28;660185;-70
2023/12/02 04:13:40;;;;;;;30.37;12.10;;;-1.90;99.90;;;;;;4413153;28;660435;-69
2023/12/02 04:16:27;;;;;;;19.03;9.00;;;-1.90;99.90;;;;;;4456732;27;659292;-69
2023/12/02 04:19:15;;;;;;;26.37;11.80;;;-1.90;99.90;;;;;;4434343;27;659093;-71
2023/12/02 04:22:03;;;;;;;28.33;11.63;;;-1.90;99.90;;;;;;4439401;27;659913;-70
2023/12/02 04:24:50;;;;;;;21.43;8.63;;;-2.00;99.90;;;;;;4459411;27;660247;-70
2023/12/02 04:27:38;;;;;;;24.93;10.10;;;-2.00;99.90;;;;;;4437928;28;658696;-70
2023/12/02 04:30:25;;;;;;;27.27;10.77;;;-2.00;99.90;;;;;;4450151;27;660540;-69
2023/12/02 04:33:12;;;;;;;25.23;10.87;;;-1.90;99.90;;;;;;4454666;27;659735;-70
2023/12/02 04:36:02;;;;;;;20.73;9.13;;;-1.90;99.90;;;;;;4454226;27;660268;-70
2023/12/02 04:38:49;;;;;;;20.97;8.47;;;-1.90;99.90;;;;;;4435842;27;658569;-70
2023/12/02 04:41:36;;;;;;;19.93;8.77;;;-1.90;99.90;;;;;;4449929;27;658828;-69
2023/12/02 04:44:23;;;;;;;20.20;8.73;;;-1.90;99.90;;;;;;4430192;27;659058;-69
2023/12/02 04:47:10;;;;;;;26.23;10.43;;;-2.00;99.90;;;;;;4449402;27;659480;-72
2023/12/02 04:49:57;;;;;;;22.30;10.13;;;-2.00;99.90;;;;;;4427532;27;660363;-71
2023/12/02 04:52:46;;;;;;;18.20;8.57;;;-2.00;99.90;;;;;;4454888;28;659900;-70
2023/12/02 04:55:33;;;;;;;22.27;10.27;;;-2.00;99.90;;;;;;4426197;27;658551;-71
2023/12/02 04:58:20;;;;;;;22.37;9.33;;;-2.00;99.90;;;;;;4459224;27;660460;-69
2023/12/02 05:01:08;;;;;;;34.17;11.88;;;-2.00;99.90;;;;;;4439957;27;658433;-70
2023/12/02 05:03:55;;;;;;;31.87;10.30;;;-2.10;99.90;;;;;;4460010;27;660709;-70
2023/12/02 05:06:42;;;;;;;22.90;9.60;;;-2.10;99.90;;;;;;4440214;28;659907;-69
2023/12/02 05:09:31;;;;;;;20.27;9.10;;;-2.10;99.90;;;;;;4463084;28;658507;-72
2023/12/02 05:12:18;;;;;;;14.80;6.80;;;-2.10;99.90;;;;;;4436730;27;658442;-70
2023/12/02 05:15:06;;;;;;;24.00;9.00;;;-2.10;99.90;;;;;;4458867;28;659525;-72
2023/12/02 05:17:53;;;;;;;21.10;9.37;;;-2.10;99.90;;;;;;4430257;28;658958;-70
2023/12/02 05:20:40;;;;;;;10.70;4.93;;;-2.10;99.90;;;;;;4451952;27;659303;-70
2023/12/02 05:23:28;;;;;;;25.63;9.80;;;-2.10;99.90;;;;;;4431723;28;658768;-72
2023/12/02 05:26:16;;;;;;;24.07;10.27;;;-2.10;99.90;;;;;;4454312;28;659759;-70
2023/12/02 05:29:05;;;;;;;17.23;6.83;;;-2.20;99.90;;;;;;4425562;28;659776;-70
2023/12/02 05:31:52;;;;;;;26.40;9.47;;;-2.10;99.90;;;;;;4453603;28;659259;-72
2023/12/02 05:34:39;;;;;;;23.63;9.13;;;-2.20;99.90;;;;;;4463742;28;659097;-72
2023/12/02 05:37:27;;;;;;;14.63;5.93;;;-2.10;99.90;;;;;;4446034;28;658412;-70
2023/12/02 05:40:15;;;;;;;17.50;8.57;;;-2.10;99.90;;;;;;4422292;28;659214;-71
2023/12/02 05:43:04;;;;;;;21.73;8.33;;;-2.10;99.90;;;;;;4461877;28;658330;-69
2023/12/02 05:45:51;;;;;;;16.77;6.30;;;-2.10;99.90;;;;;;4458652;28;659112;-70
2023/12/02 05:48:38;;;;;;;19.77;7.77;;;-2.10;99.90;;;;;;4427211;28;659069;-70
2023/12/02 05:51:25;;;;;;;21.17;8.63;;;-2.10;99.90;;;;;;4450058;28;659566;-70
2023/12/02 05:54:12;;;;;;;20.98;8.07;;;-2.10;99.90;;;;;;4431763;28;658948;-70
2023/12/02 05:57:00;;;;;;;12.60;5.97;;;-2.10;99.90;;;;;;4452224;28;658865;-70
2023/12/02 05:59:50;;;;;;;13.27;6.30;;;-2.10;99.90;;;;;;4444512;28;658009;-70
2023/12/02 06:02:37;;;;;;;15.33;7.33;;;-2.20;99.90;;;;;;4414305;28;658677;-70
2023/12/02 06:05:25;;;;;;;8.20;3.27;;;-2.20;99.90;;;;;;4445437;28;659251;-71
2023/12/02 06:08:12;;;;;;;18.47;6.53;;;-2.20;99.90;;;;;;4433700;28;658073;-71
2023/12/02 06:11:02;;;;;;;16.30;7.23;;;-2.30;99.90;;;;;;4443033;28;659042;-72
2023/12/02 06:13:49;;;;;;;13.07;5.07;;;-2.30;99.90;;;;;;4427753;28;659699;-72
2023/12/02 06:16:38;;;;;;;18.70;7.43;;;-2.30;99.90;;;;;;4450426;28;658666;-72
2023/12/02 06:19:25;;;;;;;13.27;5.70;;;-2.30;99.90;;;;;;4433804;28;659794;-72
2023/12/02 06:22:13;;;;;;;14.85;7.05;;;-2.30;99.90;;;;;;4439978;28;659877;-71
2023/12/02 06:25:00;;;;;;;16.87;6.87;;;-2.30;99.90;;;;;;4444976;28;659395;-72
2023/12/02 06:27:48;;;;;;;14.27;5.03;;;-2.40;99.90;;;;;;4440798;28;658968;-72
2023/12/02 06:30:35;;;;;;;29.80;11.17;;;-2.40;99.90;;;;;;4468477;28;659342;-72
2023/12/02 06:33:24;;;;;;;27.17;7.97;;;-2.40;99.90;;;;;;4445799;28;659868;-72
2023/12/02 06:36:12;;;;;;;86.40;19.53;;;-2.40;99.90;;;;;;4466616;27;658665;-72
2023/12/02 06:38:59;;;;;;;79.23;20.83;;;-2.40;99.90;;;;;;4428989;28;659947;-72
2023/12/02 06:41:46;;;;;;;51.72;14.00;;;-2.50;99.90;;;;;;4455237;28;659900;-72
2023/12/02 06:44:34;;;;;;;25.07;9.17;;;-2.50;99.90;;;;;;4426000;28;660353;-70
2023/12/02 06:47:21;;;;;;;28.23;9.87;;;-2.50;99.90;;;;;;4460068;28;659746;-70
2023/12/02 06:50:11;;;;;;;18.67;8.57;;;-2.50;99.90;;;;;;4434190;28;658202;-69
2023/12/02 06:52:58;;;;;;;17.40;6.33;;;-2.40;99.90;;;;;;4435233;28;658667;-70
2023/12/02 06:55:45;;;;;;;15.07;6.17;;;-2.50;99.90;;;;;;4454228;28;658920;-71
2023/12/02 06:58:32;;;;;;;12.37;4.93;;;-2.50;99.90;;;;;;4442222;28;658578;-71
2023/12/02 07:01:26;;;;;;;20.30;8.30;;;-2.50;99.90;;;;;;4457542;28;659776;-72
2023/12/02 07:04:13;;;;;;;32.70;11.90;;;-2.60;99.90;;;;;;4416576;28;659554;-70
2023/12/02 07:07:01;;;;;;;14.13;5.50;;;-2.50;99.90;;;;;;4464883;28;660527;-70
2023/12/02 07:09:49;;;;;;;25.37;8.17;;;-2.60;99.90;;;;;;4438767;28;658477;-72
2023/12/02 07:12:36;;;;;;;20.60;7.57;;;-2.60;99.90;;;;;;4451886;28;658938;-72
2023/12/02 07:15:23;;;;;;;15.60;5.20;;;-2.60;99.90;;;;;;4443560;27;658698;-72
2023/12/02 07:18:10;;;;;;;16.20;7.00;;;-2.50;99.90;;;;;;4450767;28;659917;-72
2023/12/02 07:20:58;;;;;;;11.70;4.80;;;-2.50;99.90;;;;;;4440938;28;659043;-69
2023/12/02 07:23:46;;;;;;;12.20;5.80;;;-2.40;99.90;;;;;;4447365;27;660321;-69
2023/12/02 07:26:34;;;;;;;8.35;4.30;;;-2.50;99.90;;;;;;4423350;28;658979;-70
2023/12/02 07:29:21;;;;;;;12.23;5.07;;;-2.50;99.90;;;;;;4461807;28;657800;-71
2023/12/02 07:32:08;;;;;;;14.75;3.10;;;-2.50;99.90;;;;;;4440175;28;658919;-71
2023/12/02 07:34:56;;;;;;;8.40;3.37;;;-2.50;99.90;;;;;;4461340;28;659281;-71
2023/12/02 07:37:45;;;;;;;14.57;5.13;;;-2.50;99.90;;;;;;4445959;28;657827;-71
2023/12/02 07:40:34;;;;;;;17.43;6.70;;;-2.50;99.90;;;;;;4454768;28;659421;-72
2023/12/02 07:43:21;;;;;;;16.40;6.57;;;-2.50;99.90;;;;;;4422170;28;659273;-69
2023/12/02 07:46:08;;;;;;;12.07;4.00;;;-2.50;99.90;;;;;;4437739;28;659145;-72
2023/12/02 07:48:55;;;;;;;12.23;5.13;;;-2.50;99.90;;;;;;4448140;28;658921;-72
2023/12/02 07:51:42;;;;;;;19.58;7.35;;;-2.50;99.90;;;;;;4435976;28;658926;-72
2023/12/02 07:54:31;;;;;;;11.67;4.40;;;-2.50;99.90;;;;;;4454139;28;660004;-72
2023/12/02 07:57:20;;;;;;;17.53;7.40;;;-2.50;99.90;;;;;;4440630;28;658839;-72
2023/12/02 08:00:09;;;;;;;16.57;6.47;;;-2.50;99.90;;;;;;4459777;27;658749;-71
2023/12/02 08:02:56;;;;;;;12.30;4.87;;;-2.50;99.90;;;;;;4448773;28;659633;-72
2023/12/02 08:05:44;;;;;;;15.20;5.20;;;-2.50;99.90;;;;;;4436994;28;659027;-71
2023/12/02 08:08:31;;;;;;;9.73;3.63;;;-2.60;99.90;;;;;;4442254;28;659128;-72
2023/12/02 08:11:18;;;;;;;22.57;8.50;;;-2.60;99.90;;;;;;4436308;28;657889;-72
2023/12/02 08:14:06;;;;;;;13.27;5.90;;;-2.60;99.90;;;;;;4455087;28;658909;-72
2023/12/02 08:16:54;;;;;;;15.87;6.17;;;-2.60;99.90;;;;;;4434068;28;658689;-71
2023/12/02 08:19:41;;;;;;;13.93;5.57;;;-2.60;99.90;;;;;;4457421;28;659126;-71
2023/12/02 08:22:29;;;;;;;18.60;8.67;;;-2.60;99.90;;;;;;4432760;28;658993;-70
2023/12/02 08:25:16;;;;;;;8.80;3.33;;;-2.60;99.90;;;;;;4451157;28;659260;-72
2023/12/02 08:28:04;;;;;;;18.58;7.22;;;-2.50;99.90;;;;;;4424149;28;658042;-71
2023/12/02 08:30:52;;;;;;;17.73;6.47;;;-2.50;99.90;;;;;;4453886;28;659813;-71
2023/12/02 08:33:39;;;;;;;11.80;4.90;;;-2.50;99.90;;;;;;4433053;28;658734;-72
2023/12/02 08:36:27;;;;;;;16.73;8.02;;;-2.40;99.90;;;;;;4462061;28;658579;-72
2023/12/02 08:39:14;;;;;;;14.27;5.30;;;-2.40;99.90;;;;;;4441819;27;659471;-71
2023/12/02 08:42:01;;;;;;;23.13;9.33;;;-2.40;99.90;;;;;;4463021;28;658877;-71
2023/12/02 08:44:49;;;;;;;12.60;5.90;;;-2.30;99.90;;;;;;4423823;28;658744;-71
2023/12/02 08:47:37;;;;;;;12.27;5.00;;;-2.20;99.90;;;;;;4452821;28;658995;-71
2023/12/02 08:50:24;;;;;;;13.20;5.70;;;-2.10;99.90;;;;;;4441557;28;659981;-71
2023/12/02 08:53:12;;;;;;;11.57;5.27;;;-2.20;99.90;;;;;;4466381;28;658191;-71
2023/12/02 08:55:59;;;;;;;9.90;4.03;;;-2.10;99.90;;;;;;4431045;28;659134;-72
2023/12/02 08:58:46;;;;;;;20.97;7.70;;;-2.10;99.90;;;;;;4453888;28;657361;-71
2023/12/02 09:01:33;;;;;;;23.13;9.00;;;-2.00;99.90;;;;;;4440106;28;658615;-71
2023/12/02 09:04:22;;;;;;;16.57;6.17;;;-2.00;99.90;;;;;;4449234;28;659199;-69
2023/12/02 09:07:09;;;;;;;15.43;6.27;;;-2.10;99.90;;;;;;4418961;28;659047;-69
2023/12/02 09:09:56;;;;;;;21.73;8.37;;;-2.00;99.90;;;;;;4457757;28;657874;-69
2023/12/02 09:12:43;;;;;;;20.67;7.83;;;-2.00;99.90;;;;;;4440638;28;658718;-69
2023/12/02 09:15:41;;;;;;;25.77;9.07;;;-2.00;99.90;;;;;;4450524;28;659097;-69
2023/12/02 09:18:31;;;;;;;21.27;6.53;;;-2.10;99.90;;;;;;4434394;28;659254;-69
2023/12/02 09:21:53;;;;;;;18.60;8.17;;;-2.10;99.90;;;;;;4439493;28;658639;-72
2023/12/02 09:24:42;;;;;;;17.63;7.10;;;-2.20;99.90;;;;;;4370495;28;659005;-71
2023/12/02 09:27:56;;;;;;;14.77;6.00;;;-2.10;99.90;;;;;;4359397;28;659059;-71
2023/12/02 09:30:50;;;;;;;17.77;8.27;;;-2.20;99.90;;;;;;4412290;28;658801;-71
2023/12/02 09:33:38;;;;;;;18.97;8.40;;;-2.30;99.90;;;;;;4414148;28;658860;-71
2023/12/02 09:36:30;;;;;;;13.20;4.67;;;-2.30;99.90;;;;;;4446935;28;659374;-71
2023/12/02 09:39:44;;;;;;;24.95;9.70;;;-2.40;99.90;;;;;;4417487;28;659794;-69
2023/12/02 09:42:31;;;;;;;21.17;7.53;;;-2.40;99.90;;;;;;4438738;28;658686;-71
2023/12/02 09:45:18;;;;;;;14.90;7.37;;;-2.30;99.90;;;;;;4441698;28;658805;-71
2023/12/02 09:48:09;;;;;;;21.90;8.13;;;-2.30;99.90;;;;;;4449452;28;659410;-71
2023/12/02 09:50:59;;;;;;;30.05;10.32;;;-2.30;99.90;;;;;;4439268;28;658858;-71
2023/12/02 09:53:49;;;;;;;30.43;10.70;;;-2.40;99.90;;;;;;4436386;28;660132;-71
2023/12/02 09:56:40;;;;;;;35.87;13.13;;;-2.30;99.90;;;;;;4423258;28;659755;-71
2023/12/02 09:59:31;;;;;;;21.73;8.50;;;-2.20;99.90;;;;;;4445788;28;659921;-71
2023/12/02 10:02:24;;;;;;;25.13;10.13;;;-2.20;99.90;;;;;;4417280;28;658601;-71
2023/12/02 10:05:12;;;;;;;35.90;12.23;;;-2.20;99.90;;;;;;4427400;28;659762;-71
2023/12/02 10:08:05;;;;;;;26.40;9.57;;;-2.20;99.90;;;;;;4432473;28;660381;-71
2023/12/02 10:11:04;;;;;;;28.30;8.77;;;-2.10;99.90;;;;;;4416193;28;659032;-71
2023/12/02 10:13:54;;;;;;;47.67;13.77;;;-2.00;99.90;;;;;;4441426;28;659333;-71
2023/12/02 10:16:43;;;;;;;24.10;9.53;;;-2.00;99.90;;;;;;4440777;28;659517;-69
2023/12/02 10:19:31;;;;;;;27.60;9.73;;;-2.00;99.90;;;;;;4438056;28;659547;-69
2023/12/02 10:22:20;;;;;;;25.17;9.13;;;-1.90;99.90;;;;;;4418083;28;658605;-69
2023/12/02 10:25:09;;;;;;;26.30;9.40;;;-1.90;99.90;;;;;;4445289;28;659127;-69
2023/12/02 10:27:56;;;;;;;39.77;14.70;;;-1.90;99.90;;;;;;4451719;28;658776;-71
2023/12/02 10:30:47;;;;;;;25.17;10.48;;;-1.90;99.90;;;;;;4430882;28;659714;-69
2023/12/02 10:33:37;;;;;;;32.40;11.53;;;-1.90;99.90;;;;;;4424373;28;660436;-69
2023/12/02 10:36:26;;;;;;;26.93;10.70;;;-1.80;99.90;;;;;;4429639;28;660655;-71
2023/12/02 10:39:16;;;;;;;33.87;13.87;;;-1.90;99.90;;;;;;4442336;28;659826;-71
2023/12/02 10:42:04;;;;;;;37.17;13.03;;;-1.90;99.90;;;;;;4441469;28;659443;-69
2023/12/02 10:44:53;;;;;;;28.33;11.40;;;-1.80;99.90;;;;;;4442669;28;660419;-69
2023/12/02 10:47:42;;;;;;;29.37;12.13;;;-1.80;99.90;;;;;;4434202;28;659837;-69
2023/12/02 10:50:29;;;;;;;32.77;12.03;;;-1.80;99.90;;;;;;4441558;28;659504;-69
2023/12/02 10:53:16;;;;;;;32.37;12.63;;;-1.80;99.90;;;;;;4455392;28;659618;-71
2023/12/02 10:56:07;;;;;;;28.00;12.37;;;-1.90;99.90;;;;;;4432342;28;660672;-71
2023/12/02 10:58:54;;;;;;;32.83;12.57;;;-1.90;99.90;;;;;;4431804;28;660135;-69
2023/12/02 11:01:46;;;;;;;32.63;13.30;;;-1.80;99.90;;;;;;4458503;28;660088;-69
2023/12/02 11:04:38;;;;;;;26.73;10.67;;;-1.80;99.90;;;;;;4404779;28;660282;-71
2023/12/02 11:07:25;;;;;;;29.73;11.37;;;-1.90;99.90;;;;;;4421332;28;661000;-69
2023/12/02 11:10:13;;;;;;;31.10;11.37;;;-1.90;99.90;;;;;;4441301;28;659520;-69
2023/12/02 11:13:02;;;;;;;30.50;12.30;;;-1.90;99.90;;;;;;4449055;28;660764;-69
2023/12/02 11:15:59;;;;;;;35.17;12.43;;;-1.80;99.90;;;;;;4417818;27;660743;-69
2023/12/02 11:19:18;;;;;;;32.60;13.45;;;-1.90;99.90;;;;;;4424139;28;659859;-69
2023/12/02 11:22:20;;;;;;;17.07;5.67;;;-1.90;99.90;;;;;;4419428;28;660232;-69
2023/12/02 11:25:13;;;;;;;37.43;13.00;;;-1.90;99.90;;;;;;4418578;28;658805;-71
2023/12/02 11:28:04;;;;;;;32.23;13.17;;;-1.80;99.90;;;;;;4422174;28;659923;-71
2023/12/02 11:30:58;;;;;;;35.10;14.43;;;-1.80;99.90;;;;;;4417119;28;659845;-71
2023/12/02 11:33:51;;;;;;;32.33;11.85;;;-1.80;99.90;;;;;;4421346;28;659917;-71
2023/12/02 11:36:43;;;;;;;36.28;14.15;;;-1.80;99.90;;;;;;4416700;28;659901;-71
2023/12/02 11:39:37;;;;;;;26.47;11.37;;;-1.80;99.90;;;;;;4423208;28;660093;-71
2023/12/02 11:42:27;;;;;;;38.87;12.87;;;-1.70;99.90;;;;;;4426511;28;660070;-71
2023/12/02 11:45:17;;;;;;;34.50;14.63;;;-1.70;99.90;;;;;;4421466;28;659911;-70
2023/12/02 11:48:10;;;;;;;34.67;13.47;;;-1.70;99.90;;;;;;4418280;28;661077;-71
2023/12/02 11:51:10;;;;;;;41.60;16.27;;;-1.90;99.90;;;;;;4425421;28;659776;-71
2023/12/02 11:54:11;;;;;;;43.40;13.53;;;-1.90;99.90;;;;;;4403105;28;660145;-71
2023/12/02 11:57:10;;;;;;;34.13;13.53;;;-1.80;99.90;;;;;;4418579;28;660062;-71
2023/12/02 12:00:06;;;;;;;40.13;15.03;;;-1.80;99.90;;;;;;4416390;27;659800;-69
2023/12/02 12:03:11;;;;;;;39.15;15.05;;;-1.80;99.90;;;;;;4391762;28;660538;-69
2023/12/02 12:06:01;;;;;;;45.70;15.13;;;-1.70;99.90;;;;;;4394692;28;660469;-69
2023/12/02 12:08:56;;;;;;;25.97;11.20;;;-1.80;99.90;;;;;;4413540;28;660202;-71
2023/12/02 12:11:43;;;;;;;35.63;13.07;;;-1.90;99.90;;;;;;4404498;28;659679;-71
2023/12/02 12:14:31;;;;;;;37.70;13.97;;;-1.90;99.90;;;;;;4453791;28;660331;-71
2023/12/02 12:17:19;;;;;;;32.20;12.60;;;-2.00;99.90;;;;;;4425808;28;660154;-69
2023/12/02 12:20:18;;;;;;;32.63;11.77;;;-1.90;99.90;;;;;;4442740;28;660115;-69
2023/12/02 12:23:08;;;;;;;32.63;13.27;;;-1.90;99.90;;;;;;4437142;28;659741;-69
2023/12/02 12:25:55;;;;;;;28.57;11.77;;;-2.00;99.90;;;;;;4441705;27;660424;-71
2023/12/02 12:28:42;;;;;;;29.33;11.63;;;-2.00;99.90;;;;;;4442832;28;659962;-71
2023/12/02 12:31:31;;;;;;;33.50;13.47;;;-2.00;99.90;;;;;;4454894;28;659690;-69
2023/12/02 12:34:18;;;;;;;31.17;11.95;;;-2.00;99.90;;;;;;4429681;28;659892;-69
2023/12/02 12:37:05;;;;;;;35.83;13.83;;;-2.00;99.90;;;;;;4453058;28;659411;-69
2023/12/02 12:39:52;;;;;;;32.90;13.65;;;-2.10;99.90;;;;;;4434429;28;660145;-69
2023/12/02 12:42:46;;;;;;;37.17;14.57;;;-2.10;99.90;;;;;;4441473;28;660521;-69
2023/12/02 12:45:34;;;;;;;23.13;9.47;;;-2.10;99.90;;;;;;4408800;28;660669;-69
2023/12/02 12:48:26;;;;;;;27.03;11.57;;;-2.10;99.90;;;;;;4453392;28;658688;-71
2023/12/02 12:51:15;;;;;;;38.83;15.07;;;-2.10;99.90;;;;;;4423410;28;659954;-71
2023/12/02 12:54:05;;;;;;;34.72;15.07;;;-2.20;99.90;;;;;;4431743;28;659766;-71
2023/12/02 12:56:55;;;;;;;36.33;14.40;;;-2.20;99.90;;;;;;4429074;28;659533;-69
2023/12/02 12:59:42;;;;;;;35.33;14.80;;;-2.30;99.90;;;;;;4436535;28;659779;-69
2023/12/02 13:02:36;;;;;;;7.70;4.07;;;-2.30;99.90;;;;;;4455897;28;659939;-69
2023/12/02 13:05:25;;;;;;;32.70;11.00;;;-2.20;99.90;;;;;;4410382;28;658236;-71
2023/12/02 13:08:18;;;;;;;34.73;14.40;;;-2.30;99.90;;;;;;4432944;28;659741;-71
2023/12/02 13:11:07;;;;;;;36.87;15.23;;;-2.30;99.90;;;;;;4425099;28;660419;-71
2023/12/02 13:13:59;;;;;;;37.60;16.00;;;-2.40;99.90;;;;;;4429647;28;660129;-71
2023/12/02 13:16:46;;;;;;;30.10;13.33;;;-2.40;99.90;;;;;;4431238;28;660287;-71
2023/12/02 13:19:33;;;;;;;37.27;14.83;;;-2.30;99.90;;;;;;4426963;28;659990;-71
2023/12/02 13:22:22;;;;;;;38.30;15.37;;;-2.50;99.90;;;;;;4457916;28;660594;-69
2023/12/02 13:25:10;;;;;;;40.87;14.57;;;-2.50;99.90;;;;;;4430408;28;659641;-69
2023/12/02 13:27:59;;;;;;;37.53;16.03;;;-2.40;99.90;;;;;;4439071;28;660052;-69
2023/12/02 13:30:46;;;;;;;38.60;15.17;;;-2.50;99.90;;;;;;4451841;28;659399;-71
2023/12/02 13:33:40;;;;;;;37.23;14.20;;;-2.50;99.90;;;;;;4418032;28;660158;-71
2023/12/02 13:36:30;;;;;;;35.07;14.60;;;-2.50;99.90;;;;;;4418853;28;659964;-71
2023/12/02 13:39:24;;;;;;;32.17;13.77;;;-2.50;99.90;;;;;;4426791;28;659738;-71
2023/12/02 13:42:12;;;;;;;33.80;14.47;;;-2.50;99.90;;;;;;4436481;28;660189;-69
2023/12/02 13:45:04;;;;;;;36.13;14.50;;;-2.50;99.90;;;;;;4419130;28;660873;-69
2023/12/02 13:47:59;;;;;;;41.23;16.67;;;-2.40;99.90;;;;;;4433764;28;660304;-69
2023/12/02 13:50:49;;;;;;;39.20;15.87;;;-2.40;99.90;;;;;;4435091;28;660104;-69
2023/12/02 13:53:40;;;;;;;30.83;13.33;;;-2.40;99.90;;;;;;4434105;28;660031;-69
2023/12/02 13:56:33;;;;;;;38.20;13.60;;;-2.40;99.90;;;;;;4432998;28;659275;-69
2023/12/02 13:59:23;;;;;;;36.57;14.23;;;-2.40;99.90;;;;;;4419007;28;660211;-69
2023/12/02 14:02:19;;;;;;;37.20;14.23;;;-2.40;99.90;;;;;;4436510;28;660397;-69
2023/12/02 14:05:07;;;;;;;40.33;15.17;;;-2.50;99.90;;;;;;4424581;28;660580;-72
2023/12/02 14:07:56;;;;;;;38.30;14.17;;;-2.50;99.90;;;;;;4425508;28;659599;-69
2023/12/02 14:10:43;;;;;;;43.97;17.47;;;-2.50;99.90;;;;;;4440028;28;659649;-69